Time;durP1;ratioP1;P1;durP2;ratioP2;P2;SDS_P1;SDS_P2;PMS_P1;PMS_P2;Temp;Humidity;BMP_temperature;BMP_pressure;BME280_temperature;BME280_humidity;BME280_pressure;Samples;Min_cycle;Max_cycle;Signal;HPM_P1;HPM_P2
2021/10/26 00:00:34;;;;;;;37.05;25.40;;;12.20;99.90;;;;;;5067465;28;25066;-74
2021/10/26 00:03:00;;;;;;;41.03;26.30;;;12.20;99.90;;;;;;5057176;28;25128;-74
2021/10/26 00:05:26;;;;;;;42.63;26.63;;;12.20;99.90;;;;;;5069526;28;25090;-74
2021/10/26 00:07:51;;;;;;;37.63;26.30;;;12.10;99.90;;;;;;5064519;28;25088;-74
2021/10/26 00:10:17;;;;;;;38.70;24.85;;;12.10;99.90;;;;;;5077678;28;25090;-74
2021/10/26 00:12:43;;;;;;;40.60;26.73;;;12.10;99.90;;;;;;5077243;28;25060;-72
2021/10/26 00:15:09;;;;;;;45.10;26.50;;;12.10;99.90;;;;;;5074003;28;24852;-75
2021/10/26 00:17:35;;;;;;;41.53;24.75;;;12.10;99.90;;;;;;5075596;28;25071;-74
2021/10/26 00:20:02;;;;;;;41.47;28.20;;;12.20;99.90;;;;;;5075742;28;25066;-74
2021/10/26 00:22:27;;;;;;;45.22;27.75;;;12.20;99.90;;;;;;5075577;28;25111;-74
2021/10/26 00:24:55;;;;;;;47.70;27.65;;;12.10;99.90;;;;;;5077368;28;25058;-75
2021/10/26 00:27:21;;;;;;;47.80;31.27;;;12.10;99.90;;;;;;5070764;28;25050;-73
2021/10/26 00:29:48;;;;;;;38.55;27.70;;;12.10;99.90;;;;;;5075418;28;25080;-72
2021/10/26 00:32:15;;;;;;;52.95;28.52;;;12.10;99.90;;;;;;5069496;28;25132;-74
2021/10/26 00:34:41;;;;;;;38.22;28.75;;;12.00;99.90;;;;;;5064859;28;25146;-73
2021/10/26 00:37:06;;;;;;;43.05;27.25;;;12.00;99.90;;;;;;5076380;28;25378;-74
2021/10/26 00:39:32;;;;;;;45.72;30.27;;;12.00;99.90;;;;;;5079786;28;25067;-73
2021/10/26 00:41:59;;;;;;;47.08;30.67;;;12.00;99.90;;;;;;5057830;28;25096;-74
2021/10/26 00:44:28;;;;;;;52.70;29.33;;;12.00;99.90;;;;;;5072036;28;25076;-74
2021/10/26 00:46:54;;;;;;;48.60;30.13;;;12.00;99.90;;;;;;5069218;28;25085;-74
2021/10/26 00:49:20;;;;;;;47.25;30.42;;;12.00;99.90;;;;;;5060968;28;25163;-75
2021/10/26 00:51:46;;;;;;;43.42;27.73;;;12.00;99.90;;;;;;5067380;28;25066;-75
2021/10/26 00:54:12;;;;;;;42.15;29.15;;;12.00;99.90;;;;;;5064243;28;25149;-75
2021/10/26 00:56:37;;;;;;;50.83;30.95;;;12.00;99.90;;;;;;5061786;28;25112;-74
2021/10/26 00:59:04;;;;;;;49.15;31.33;;;12.00;99.90;;;;;;5048583;28;25089;-74
2021/10/26 01:01:29;;;;;;;41.45;25.50;;;12.00;99.90;;;;;;5054638;28;25091;-74
2021/10/26 01:03:55;;;;;;;46.95;30.75;;;12.00;99.90;;;;;;5065086;28;25104;-73
2021/10/26 01:06:22;;;;;;;47.92;28.73;;;12.00;99.90;;;;;;5058805;28;25156;-74
2021/10/26 01:08:51;;;;;;;42.22;28.08;;;12.00;99.90;;;;;;5064348;28;25172;-76
2021/10/26 01:11:18;;;;;;;43.35;26.98;;;12.00;99.90;;;;;;5060278;28;25073;-72
2021/10/26 01:13:45;;;;;;;41.95;27.90;;;12.00;99.90;;;;;;5067070;28;25147;-72
2021/10/26 01:16:10;;;;;;;49.90;32.25;;;12.00;99.90;;;;;;5061061;28;25141;-75
2021/10/26 01:18:36;;;;;;;50.65;31.48;;;11.90;99.90;;;;;;5057418;28;25152;-75
2021/10/26 01:21:02;;;;;;;51.55;32.92;;;11.90;99.90;;;;;;5068775;28;25154;-74
2021/10/26 01:23:28;;;;;;;45.25;29.33;;;11.90;99.90;;;;;;5058909;28;25166;-74
2021/10/26 01:25:54;;;;;;;52.28;33.42;;;11.90;99.90;;;;;;5064650;28;25131;-73
2021/10/26 01:28:21;;;;;;;55.95;33.22;;;11.90;99.90;;;;;;5065067;28;25148;-74
2021/10/26 01:30:46;;;;;;;50.58;31.38;;;11.90;99.90;;;;;;5063796;28;25105;-73
2021/10/26 01:33:12;;;;;;;52.67;32.58;;;11.90;99.90;;;;;;5058268;28;25096;-75
2021/10/26 01:35:38;;;;;;;46.17;31.75;;;11.80;99.90;;;;;;5056121;28;25138;-73
2021/10/26 01:38:06;;;;;;;60.70;35.42;;;11.80;99.90;;;;;;5058957;28;25076;-73
2021/10/26 01:40:32;;;;;;;50.17;31.90;;;11.80;99.90;;;;;;5063814;28;25055;-74
2021/10/26 01:42:58;;;;;;;51.83;33.70;;;11.80;99.90;;;;;;5062517;28;25177;-74
2021/10/26 01:45:24;;;;;;;47.75;31.95;;;11.80;99.90;;;;;;5059738;28;25072;-73
2021/10/26 01:47:52;;;;;;;55.83;36.97;;;11.80;99.90;;;;;;5060344;28;25100;-72
2021/10/26 01:50:18;;;;;;;59.67;37.05;;;11.80;99.90;;;;;;5072856;28;25063;-72
2021/10/26 01:52:45;;;;;;;47.60;33.17;;;11.80;99.90;;;;;;5065627;28;25084;-75
2021/10/26 01:55:13;;;;;;;63.42;39.60;;;11.80;99.90;;;;;;5052413;28;25120;-73
2021/10/26 01:57:39;;;;;;;67.90;38.05;;;11.80;99.90;;;;;;5040398;28;25095;-73
2021/10/26 02:00:08;;;;;;;57.03;37.20;;;11.70;99.90;;;;;;5069508;28;25131;-74
2021/10/26 02:02:34;;;;;;;56.63;35.75;;;11.70;99.90;;;;;;5078976;28;25053;-73
2021/10/26 02:05:00;;;;;;;67.88;39.28;;;11.80;99.90;;;;;;5099071;28;25085;-73
2021/10/26 02:07:26;;;;;;;64.85;38.42;;;11.80;99.90;;;;;;5087689;28;25075;-73
2021/10/26 02:09:52;;;;;;;67.60;39.63;;;11.80;99.90;;;;;;5074418;28;25082;-73
2021/10/26 02:12:18;;;;;;;66.57;37.17;;;11.80;99.90;;;;;;5059276;28;25128;-73
2021/10/26 02:14:43;;;;;;;55.42;32.90;;;11.80;99.90;;;;;;5067528;28;25078;-73
2021/10/26 02:17:09;;;;;;;56.20;34.38;;;11.90;99.90;;;;;;5062957;28;25051;-74
2021/10/26 02:19:35;;;;;;;57.47;36.45;;;11.90;99.90;;;;;;5066686;28;25064;-73
2021/10/26 02:22:01;;;;;;;54.60;31.90;;;11.80;99.90;;;;;;5068947;28;25088;-74
2021/10/26 02:24:28;;;;;;;54.05;33.63;;;11.80;99.90;;;;;;5064518;28;25136;-73
2021/10/26 02:26:54;;;;;;;50.53;31.98;;;11.80;99.90;;;;;;5064052;28;25070;-74
2021/10/26 02:29:20;;;;;;;50.50;33.17;;;11.80;99.90;;;;;;5048309;28;25073;-73
2021/10/26 02:31:45;;;;;;;51.30;30.92;;;11.70;99.90;;;;;;5056853;28;25101;-72
2021/10/26 02:34:11;;;;;;;42.78;27.13;;;11.70;99.90;;;;;;5057826;28;25074;-74
2021/10/26 02:36:37;;;;;;;50.60;30.02;;;11.70;99.90;;;;;;5060732;28;25071;-74
2021/10/26 02:39:04;;;;;;;38.83;26.90;;;11.70;99.90;;;;;;5061815;28;25048;-75
2021/10/26 02:41:30;;;;;;;44.80;29.17;;;11.70;99.90;;;;;;5057595;28;25156;-75
2021/10/26 02:43:55;;;;;;;54.90;31.42;;;11.70;99.90;;;;;;5065678;28;25080;-74
2021/10/26 02:46:21;;;;;;;55.92;31.67;;;11.60;99.90;;;;;;5052428;28;25074;-74
2021/10/26 02:48:48;;;;;;;47.72;28.85;;;11.50;99.90;;;;;;5054078;28;25069;-73
2021/10/26 02:51:15;;;;;;;51.08;29.23;;;11.50;99.90;;;;;;5069038;28;25081;-73
2021/10/26 02:53:41;;;;;;;45.90;28.10;;;11.50;99.90;;;;;;5070913;28;25096;-73
2021/10/26 02:56:07;;;;;;;43.65;29.92;;;11.50;99.90;;;;;;5070647;28;25108;-74
2021/10/26 02:58:32;;;;;;;49.58;29.52;;;11.50;99.90;;;;;;5066352;28;25111;-74
2021/10/26 03:00:58;;;;;;;56.97;30.15;;;11.40;99.90;;;;;;5049056;28;25053;-74
2021/10/26 03:03:24;;;;;;;51.40;29.42;;;11.40;99.90;;;;;;5073156;28;25059;-74
2021/10/26 03:05:50;;;;;;;48.15;26.27;;;11.30;99.90;;;;;;5070978;28;25059;-72
2021/10/26 03:08:16;;;;;;;46.95;26.77;;;11.30;99.90;;;;;;5070617;28;25085;-73
2021/10/26 03:10:42;;;;;;;50.67;29.05;;;11.20;99.90;;;;;;5070311;28;25122;-73
2021/10/26 03:13:08;;;;;;;44.30;26.27;;;11.30;99.90;;;;;;5068269;28;25066;-74
2021/10/26 03:15:34;;;;;;;44.80;25.55;;;11.20;99.90;;;;;;5068384;28;25045;-74
2021/10/26 03:17:59;;;;;;;49.30;26.55;;;11.20;99.90;;;;;;5070655;28;25099;-73
2021/10/26 03:20:25;;;;;;;53.58;29.25;;;11.20;99.90;;;;;;5069152;28;25061;-74
2021/10/26 03:22:51;;;;;;;49.33;26.95;;;11.10;99.90;;;;;;5075744;28;25126;-75
2021/10/26 03:25:17;;;;;;;45.13;27.75;;;11.10;99.90;;;;;;5071668;28;25078;-74
2021/10/26 03:27:44;;;;;;;53.17;26.25;;;11.00;99.90;;;;;;5070371;28;25095;-74
2021/10/26 03:30:11;;;;;;;53.97;26.42;;;11.00;99.90;;;;;;5064959;28;25057;-72
2021/10/26 03:32:38;;;;;;;42.75;25.10;;;11.00;99.90;;;;;;5048686;28;25058;-74
2021/10/26 03:35:04;;;;;;;44.63;24.10;;;10.90;99.90;;;;;;5051375;28;25093;-73
2021/10/26 03:37:30;;;;;;;45.00;24.00;;;10.90;99.90;;;;;;5075235;28;25058;-73
2021/10/26 03:39:56;;;;;;;45.35;24.00;;;10.90;99.90;;;;;;5068899;28;25062;-75
2021/10/26 03:42:23;;;;;;;45.85;23.08;;;10.90;99.90;;;;;;5049402;28;25050;-74
2021/10/26 03:44:49;;;;;;;41.40;22.98;;;10.90;99.90;;;;;;5068521;28;25069;-74
2021/10/26 03:47:15;;;;;;;46.97;24.98;;;10.90;99.90;;;;;;5048864;28;25062;-73
2021/10/26 03:49:41;;;;;;;45.72;23.48;;;10.90;99.90;;;;;;5062208;28;25128;-74
2021/10/26 03:52:07;;;;;;;31.77;20.20;;;10.90;99.90;;;;;;5065855;28;25146;-73
2021/10/26 03:54:32;;;;;;;44.55;23.35;;;10.80;99.90;;;;;;5070898;28;25085;-73
2021/10/26 03:56:59;;;;;;;37.10;21.63;;;10.90;99.90;;;;;;5067434;28;25058;-74
2021/10/26 03:59:30;;;;;;;35.55;17.40;;;10.80;99.90;;;;;;5068853;28;25129;-74
2021/10/26 04:01:57;;;;;;;28.73;17.47;;;10.90;99.90;;;;;;5067626;28;25069;-73
2021/10/26 04:04:23;;;;;;;37.17;20.38;;;10.90;99.90;;;;;;5068765;28;25078;-73
2021/10/26 04:06:49;;;;;;;34.38;19.50;;;10.90;99.90;;;;;;5058793;28;25070;-74
2021/10/26 04:09:21;;;;;;;37.58;21.35;;;10.90;99.90;;;;;;5070891;28;25057;-73
2021/10/26 04:11:53;;;;;;;43.05;20.92;;;10.80;99.90;;;;;;5071512;28;25153;-74
2021/10/26 04:14:19;;;;;;;33.55;19.73;;;10.70;99.90;;;;;;5057133;28;25104;-73
2021/10/26 04:16:44;;;;;;;38.53;20.65;;;10.70;99.90;;;;;;5066552;28;25172;-74
2021/10/26 04:19:10;;;;;;;37.13;18.85;;;10.70;99.90;;;;;;5070339;28;25051;-74
2021/10/26 04:21:36;;;;;;;52.45;22.40;;;10.70;99.90;;;;;;5056321;28;25056;-72
2021/10/26 04:24:03;;;;;;;36.92;20.27;;;10.70;99.90;;;;;;5065739;28;25066;-73
2021/10/26 04:26:28;;;;;;;37.75;21.42;;;10.60;99.90;;;;;;5069569;28;25058;-72
2021/10/26 04:28:55;;;;;;;40.05;20.95;;;10.60;99.90;;;;;;5065013;28;25064;-74
2021/10/26 04:31:21;;;;;;;37.08;20.00;;;10.60;99.90;;;;;;5079241;28;25076;-74
2021/10/26 04:33:46;;;;;;;40.75;20.17;;;10.60;99.90;;;;;;5056061;28;25164;-74
2021/10/26 04:36:12;;;;;;;38.00;20.30;;;10.60;99.90;;;;;;5073995;28;25047;-74
2021/10/26 04:38:38;;;;;;;38.20;20.83;;;10.60;99.90;;;;;;5069707;28;25099;-73
2021/10/26 04:41:07;;;;;;;35.53;20.58;;;10.60;99.90;;;;;;5065467;28;25105;-72
2021/10/26 04:43:34;;;;;;;34.35;19.50;;;10.60;99.90;;;;;;5065325;28;25072;-74
2021/10/26 04:46:01;;;;;;;41.03;21.50;;;10.60;99.90;;;;;;5070112;28;25048;-74
2021/10/26 04:48:27;;;;;;;37.28;21.48;;;10.60;99.90;;;;;;5068179;28;25068;-74
2021/10/26 04:50:54;;;;;;;40.45;19.50;;;10.60;99.90;;;;;;5065127;28;25133;-74
2021/10/26 04:53:22;;;;;;;44.35;21.65;;;10.60;99.90;;;;;;5069587;28;25066;-74
2021/10/26 04:55:49;;;;;;;38.38;20.27;;;10.50;99.90;;;;;;5049928;28;25066;-74
2021/10/26 04:58:15;;;;;;;42.00;19.70;;;10.50;99.90;;;;;;5060889;28;25059;-74
2021/10/26 05:00:42;;;;;;;35.03;20.17;;;10.50;99.90;;;;;;5067643;28;25083;-74
2021/10/26 05:03:07;;;;;;;36.53;21.60;;;10.50;99.90;;;;;;5065960;28;25074;-74
2021/10/26 05:05:33;;;;;;;41.35;22.45;;;10.50;99.90;;;;;;5066421;28;25059;-74
2021/10/26 05:08:01;;;;;;;40.60;19.98;;;10.50;99.90;;;;;;5024620;28;25059;-75
2021/10/26 05:10:27;;;;;;;53.42;22.30;;;10.50;99.90;;;;;;5064953;28;25163;-75
2021/10/26 05:12:52;;;;;;;52.97;23.80;;;10.50;99.90;;;;;;5064673;28;25083;-75
2021/10/26 05:15:18;;;;;;;39.33;20.38;;;10.40;99.90;;;;;;5067126;28;25102;-74
2021/10/26 05:17:44;;;;;;;40.28;21.55;;;10.40;99.90;;;;;;5049175;28;25090;-74
2021/10/26 05:20:12;;;;;;;37.83;20.38;;;10.40;99.90;;;;;;5064140;28;25098;-74
2021/10/26 05:22:38;;;;;;;54.22;26.63;;;10.40;99.90;;;;;;5057297;28;25094;-74
2021/10/26 05:25:05;;;;;;;39.47;22.73;;;10.30;99.90;;;;;;5067329;28;25053;-74
2021/10/26 05:27:36;;;;;;;47.58;22.15;;;10.30;99.90;;;;;;5067724;28;25073;-74
2021/10/26 05:30:02;;;;;;;49.67;25.23;;;10.30;99.90;;;;;;5064862;28;25079;-75
2021/10/26 05:32:28;;;;;;;48.58;23.42;;;10.20;99.90;;;;;;5071639;28;25068;-74
2021/10/26 05:34:54;;;;;;;42.78;22.92;;;10.20;99.90;;;;;;5069285;28;25074;-74
2021/10/26 05:37:19;;;;;;;37.17;20.80;;;10.20;99.90;;;;;;5071347;28;25137;-75
2021/10/26 05:39:47;;;;;;;47.78;23.10;;;10.20;99.90;;;;;;5054742;28;25061;-73
2021/10/26 05:42:13;;;;;;;41.00;21.45;;;10.20;99.90;;;;;;5070776;28;25069;-75
2021/10/26 05:44:40;;;;;;;39.47;21.90;;;10.10;99.90;;;;;;5072504;28;25069;-75
2021/10/26 05:47:06;;;;;;;52.33;23.40;;;10.10;99.90;;;;;;5072832;28;25187;-75
2021/10/26 05:49:32;;;;;;;42.60;23.80;;;10.10;99.90;;;;;;5071304;28;25073;-75
2021/10/26 05:51:58;;;;;;;44.67;23.17;;;10.10;99.90;;;;;;5071203;28;25124;-72
2021/10/26 05:54:25;;;;;;;40.13;22.30;;;10.10;99.90;;;;;;5073553;28;25070;-75
2021/10/26 05:56:52;;;;;;;42.58;22.00;;;10.10;99.90;;;;;;5070856;28;25096;-74
2021/10/26 05:59:17;;;;;;;46.63;23.40;;;10.20;99.90;;;;;;5070230;28;25139;-73
2021/10/26 06:01:43;;;;;;;41.67;20.42;;;10.20;99.90;;;;;;5068929;28;25087;-74
2021/10/26 06:04:09;;;;;;;42.83;23.30;;;10.20;99.90;;;;;;5070878;28;25075;-75
2021/10/26 06:06:35;;;;;;;42.88;23.10;;;10.20;99.90;;;;;;5069307;28;25086;-74
2021/10/26 06:09:01;;;;;;;34.25;20.80;;;10.20;99.90;;;;;;5052433;28;25141;-74
2021/10/26 06:11:27;;;;;;;49.75;24.25;;;10.30;99.90;;;;;;5069157;28;25056;-73
2021/10/26 06:14:04;;;;;;;51.70;24.33;;;10.30;99.90;;;;;;5070683;28;25135;-75
2021/10/26 06:16:32;;;;;;;47.10;25.73;;;10.30;99.90;;;;;;5066128;28;25062;-74
2021/10/26 06:18:58;;;;;;;47.35;23.42;;;10.30;99.90;;;;;;5062876;28;25063;-73
2021/10/26 06:21:24;;;;;;;42.42;25.77;;;10.20;99.90;;;;;;5071072;28;25081;-73
2021/10/26 06:23:50;;;;;;;53.90;26.85;;;10.20;99.90;;;;;;5067189;28;25093;-73
2021/10/26 06:26:15;;;;;;;45.80;23.13;;;10.10;99.90;;;;;;5055581;28;25104;-72
2021/10/26 06:28:41;;;;;;;44.92;23.10;;;10.10;99.90;;;;;;5072428;28;25070;-73
2021/10/26 06:31:09;;;;;;;52.92;26.05;;;10.10;99.90;;;;;;5076124;28;25107;-73
2021/10/26 06:33:35;;;;;;;55.47;25.73;;;10.10;99.90;;;;;;5073313;28;25089;-73
2021/10/26 06:36:00;;;;;;;54.08;27.15;;;10.10;99.90;;;;;;5074437;28;25102;-74
2021/10/26 06:38:27;;;;;;;47.78;24.70;;;10.10;99.90;;;;;;5070874;28;25133;-74
2021/10/26 06:40:53;;;;;;;49.50;24.88;;;10.10;99.90;;;;;;5077644;28;25084;-75
2021/10/26 06:43:18;;;;;;;55.00;26.45;;;10.10;99.90;;;;;;5054476;28;25038;-74
2021/10/26 06:45:44;;;;;;;49.22;25.23;;;10.10;99.90;;;;;;5057871;28;25104;-74
2021/10/26 06:48:09;;;;;;;44.17;23.50;;;10.10;99.90;;;;;;5069568;28;25073;-75
2021/10/26 06:50:35;;;;;;;62.03;25.92;;;10.20;99.90;;;;;;5050811;28;25065;-73
2021/10/26 06:53:01;;;;;;;47.58;27.52;;;10.10;99.90;;;;;;5054877;28;25109;-75
2021/10/26 06:55:27;;;;;;;51.42;27.75;;;10.20;99.90;;;;;;5068970;28;25069;-74
2021/10/26 06:57:53;;;;;;;68.80;30.52;;;10.20;99.90;;;;;;5068637;28;25093;-73
2021/10/26 07:00:19;;;;;;;43.40;23.25;;;10.20;99.90;;;;;;5076692;28;25092;-73
2021/10/26 07:02:50;;;;;;;46.25;24.95;;;10.20;99.90;;;;;;5076053;28;25062;-74
2021/10/26 07:05:21;;;;;;;59.63;28.77;;;10.20;99.90;;;;;;5049063;28;25079;-76
2021/10/26 07:07:47;;;;;;;58.63;27.65;;;10.20;99.90;;;;;;5046995;28;25079;-74
2021/10/26 07:10:13;;;;;;;46.25;24.80;;;10.20;99.90;;;;;;5071778;28;25067;-73
2021/10/26 07:12:40;;;;;;;50.58;25.80;;;10.30;99.90;;;;;;5083717;28;25059;-73
2021/10/26 07:15:08;;;;;;;53.78;27.13;;;10.40;99.90;;;;;;5061645;28;25111;-75
2021/10/26 07:17:39;;;;;;;42.75;22.45;;;10.40;99.90;;;;;;5089014;28;25060;-70
2021/10/26 07:20:08;;;;;;;68.32;27.30;;;10.40;99.90;;;;;;5092456;28;25075;-71
2021/10/26 07:22:34;;;;;;;47.80;24.25;;;10.40;99.90;;;;;;5088952;28;25092;-72
2021/10/26 07:25:10;;;;;;;55.10;26.73;;;10.40;99.90;;;;;;5083861;28;25071;-73
2021/10/26 07:27:39;;;;;;;50.42;24.98;;;10.40;99.90;;;;;;5074557;28;25050;-74
2021/10/26 07:30:08;;;;;;;53.35;27.80;;;10.50;99.90;;;;;;5076027;28;25083;-75
2021/10/26 07:32:35;;;;;;;57.88;27.50;;;10.50;99.90;;;;;;5073953;28;25042;-71
2021/10/26 07:35:08;;;;;;;48.42;26.52;;;10.60;99.90;;;;;;5097311;28;25046;-73
2021/10/26 07:37:45;;;;;;;58.95;28.45;;;10.70;99.90;;;;;;5096374;28;25049;-73
2021/10/26 07:40:12;;;;;;;58.00;26.30;;;10.70;99.90;;;;;;5078237;28;25061;-72
2021/10/26 07:42:37;;;;;;;50.28;24.58;;;10.80;99.90;;;;;;5072912;28;25097;-74
2021/10/26 07:45:05;;;;;;;49.20;25.67;;;10.80;99.90;;;;;;5073902;28;25087;-73
2021/10/26 07:47:31;;;;;;;43.85;22.75;;;10.80;99.90;;;;;;5071820;28;25132;-72
2021/10/26 07:49:58;;;;;;;50.35;25.25;;;10.80;99.90;;;;;;5070272;28;25155;-72
2021/10/26 07:52:23;;;;;;;52.40;26.77;;;10.80;99.90;;;;;;5071097;28;25073;-72
2021/10/26 07:54:53;;;;;;;53.42;25.58;;;10.80;99.90;;;;;;5071409;28;25054;-74
2021/10/26 07:57:23;;;;;;;56.58;25.75;;;10.80;99.90;;;;;;5071753;28;25123;-73
2021/10/26 07:59:50;;;;;;;49.35;25.08;;;10.80;99.90;;;;;;5068007;28;25100;-72
2021/10/26 08:02:17;;;;;;;48.30;25.33;;;10.90;99.90;;;;;;5054051;28;25065;-71
2021/10/26 08:04:47;;;;;;;43.50;23.70;;;10.80;99.90;;;;;;5070572;28;25084;-73
2021/10/26 08:07:16;;;;;;;52.40;24.67;;;10.90;99.90;;;;;;5053783;28;25068;-73
2021/10/26 08:09:43;;;;;;;44.58;22.67;;;10.90;99.90;;;;;;5070387;28;25062;-73
2021/10/26 08:12:09;;;;;;;44.60;24.08;;;10.90;99.90;;;;;;5070010;28;25064;-74
2021/10/26 08:14:35;;;;;;;49.78;24.65;;;11.00;99.90;;;;;;5071500;28;25070;-75
2021/10/26 08:17:01;;;;;;;42.10;21.58;;;10.90;99.90;;;;;;5071204;28;25075;-74
2021/10/26 08:19:26;;;;;;;50.40;24.50;;;10.90;99.90;;;;;;5071621;28;25092;-74
2021/10/26 08:21:52;;;;;;;48.80;22.75;;;10.90;99.90;;;;;;5066677;28;25069;-74
2021/10/26 08:24:20;;;;;;;48.53;24.30;;;10.90;99.90;;;;;;5070851;28;25092;-71
2021/10/26 08:26:56;;;;;;;41.42;24.05;;;10.90;99.90;;;;;;5070364;28;25063;-73
2021/10/26 08:29:36;;;;;;;46.78;25.85;;;11.00;99.90;;;;;;5074220;28;25066;-73
2021/10/26 08:34:47;;;;;;;;;;;11.10;99.90;;;;;;5059733;28;25098;-74
2021/10/26 08:37:13;;;;;;;45.70;25.10;;;11.20;99.90;;;;;;5046508;28;25062;-74
2021/10/26 08:39:41;;;;;;;37.42;23.77;;;11.30;99.90;;;;;;5058718;28;25047;-72
2021/10/26 08:42:11;;;;;;;43.60;22.63;;;11.40;99.90;;;;;;5064807;28;25076;-73
2021/10/26 08:44:37;;;;;;;44.25;23.85;;;11.40;99.90;;;;;;5047457;28;25094;-72
2021/10/26 08:47:03;;;;;;;32.58;22.30;;;11.50;99.90;;;;;;5069233;28;25124;-72
2021/10/26 08:49:29;;;;;;;38.20;23.67;;;11.60;99.90;;;;;;5065274;28;25098;-72
2021/10/26 08:51:55;;;;;;;36.22;22.00;;;11.50;99.90;;;;;;5067883;28;25081;-73
2021/10/26 08:54:22;;;;;;;36.22;22.08;;;11.70;99.90;;;;;;5061076;28;25054;-74
2021/10/26 08:56:48;;;;;;;44.85;22.55;;;11.70;99.90;;;;;;5070033;28;25060;-72
2021/10/26 08:59:23;;;;;;;40.03;23.42;;;11.70;99.90;;;;;;5062724;28;25088;-73
2021/10/26 09:01:51;;;;;;;40.25;24.27;;;11.70;99.90;;;;;;5076233;28;25068;-73
2021/10/26 09:04:17;;;;;;;39.83;21.35;;;11.70;99.90;;;;;;5055889;28;25085;-72
2021/10/26 09:06:50;;;;;;;37.05;20.63;;;11.70;99.90;;;;;;5052455;28;25067;-72
2021/10/26 09:09:18;;;;;;;36.45;20.67;;;11.70;99.90;;;;;;5068775;28;25055;-72
2021/10/26 09:17:26;;;;;;;36.72;20.55;;;11.90;99.90;;;;;;5066169;28;25094;-73
2021/10/26 09:19:53;;;;;;;31.92;20.08;;;11.90;99.90;;;;;;5062865;28;25097;-73
2021/10/26 09:22:20;;;;;;;35.90;20.45;;;12.00;99.90;;;;;;5067586;28;25056;-73
2021/10/26 09:24:57;;;;;;;46.22;23.67;;;12.00;99.90;;;;;;5070367;28;25146;-73
2021/10/26 09:27:24;;;;;;;35.92;20.60;;;12.00;99.90;;;;;;5068360;28;25061;-71
2021/10/26 09:29:51;;;;;;;32.05;19.60;;;11.90;99.90;;;;;;5068311;28;25078;-73
2021/10/26 09:32:21;;;;;;;39.35;22.27;;;11.90;99.90;;;;;;5069966;28;25074;-72
2021/10/26 09:34:49;;;;;;;32.75;20.42;;;11.90;99.90;;;;;;5047458;28;25053;-72
2021/10/26 09:37:20;;;;;;;39.70;22.30;;;12.00;99.90;;;;;;5063121;28;25133;-71
2021/10/26 09:39:55;;;;;;;35.95;21.83;;;12.00;99.90;;;;;;5067302;28;25059;-72
2021/10/26 09:42:21;;;;;;;41.10;22.50;;;12.10;99.90;;;;;;5062577;28;25066;-71
2021/10/26 09:44:52;;;;;;;34.40;22.48;;;12.00;99.90;;;;;;5064311;28;25079;-74
2021/10/26 09:47:24;;;;;;;41.05;23.55;;;11.90;99.90;;;;;;5053128;28;25045;-73
2021/10/26 09:49:56;;;;;;;41.33;23.10;;;12.00;99.90;;;;;;5056460;28;25065;-72
2021/10/26 09:52:28;;;;;;;47.13;25.55;;;12.00;99.90;;;;;;5063784;28;25443;-71
2021/10/26 09:55:15;;;;;;;41.05;24.92;;;12.10;99.90;;;;;;5052005;28;25055;-71
2021/10/26 09:57:46;;;;;;;44.58;24.63;;;12.10;99.90;;;;;;5044526;28;25116;-72
2021/10/26 10:00:14;;;;;;;37.90;22.50;;;12.10;99.90;;;;;;5069046;28;25077;-72
2021/10/26 10:02:40;;;;;;;47.95;24.30;;;12.10;99.90;;;;;;5065471;28;25060;-72
2021/10/26 10:05:08;;;;;;;42.95;24.42;;;12.20;99.90;;;;;;5048441;28;25098;-72
2021/10/26 10:07:38;;;;;;;45.42;23.02;;;12.20;99.90;;;;;;5049900;28;25070;-72
2021/10/26 10:10:11;;;;;;;45.03;24.90;;;12.20;99.90;;;;;;5065667;28;25107;-73
2021/10/26 10:12:44;;;;;;;43.55;24.90;;;12.20;99.90;;;;;;5070249;28;25056;-74
2021/10/26 10:15:12;;;;;;;35.38;22.20;;;12.30;99.90;;;;;;5069575;28;25064;-73
2021/10/26 10:17:40;;;;;;;34.03;22.10;;;12.30;99.90;;;;;;5068385;28;25071;-73
2021/10/26 10:20:09;;;;;;;37.22;22.10;;;12.40;99.90;;;;;;5048944;28;25082;-73
2021/10/26 10:22:38;;;;;;;39.55;22.20;;;12.40;99.90;;;;;;5069014;28;25102;-72
2021/10/26 10:25:07;;;;;;;35.75;20.83;;;12.50;99.90;;;;;;5068651;28;25054;-75
2021/10/26 10:27:36;;;;;;;27.40;18.98;;;12.60;99.90;;;;;;5069301;28;25122;-74
2021/10/26 10:30:08;;;;;;;28.65;17.83;;;12.80;99.90;;;;;;5070523;28;25057;-73
2021/10/26 10:32:34;;;;;;;30.02;17.25;;;13.00;99.90;;;;;;5050033;28;25207;-72
2021/10/26 10:35:03;;;;;;;30.60;18.17;;;13.00;99.90;;;;;;5049804;28;25102;-73
2021/10/26 10:37:35;;;;;;;25.50;16.45;;;13.10;99.90;;;;;;5065099;28;25079;-77
2021/10/26 10:40:05;;;;;;;24.33;15.55;;;13.20;99.90;;;;;;5036382;28;25091;-75
2021/10/26 10:42:31;;;;;;;31.35;17.20;;;13.50;99.90;;;;;;5067221;28;25057;-73
2021/10/26 10:45:02;;;;;;;23.38;16.27;;;13.80;99.90;;;;;;5068031;28;25061;-73
2021/10/26 10:47:38;;;;;;;26.15;14.48;;;14.00;99.90;;;;;;5053577;28;25103;-73
2021/10/26 10:50:26;;;;;;;25.65;15.13;;;14.00;99.90;;;;;;5075847;28;25055;-73
2021/10/26 10:53:14;;;;;;;25.40;13.43;;;14.10;99.90;;;;;;5057483;28;25120;-73
2021/10/26 10:55:46;;;;;;;19.88;12.35;;;14.00;99.90;;;;;;5057371;28;25134;-73
2021/10/26 10:58:30;;;;;;;21.15;10.80;;;14.00;99.90;;;;;;5041671;28;25055;-74
2021/10/26 11:01:20;;;;;;;21.50;10.07;;;14.10;99.90;;;;;;5066894;28;25133;-73
2021/10/26 11:03:46;;;;;;;22.15;9.23;;;14.30;99.90;;;;;;5058866;28;25135;-75
2021/10/26 11:06:40;;;;;;;23.65;9.73;;;14.40;99.90;;;;;;5066267;28;25051;-75
2021/10/26 11:09:29;;;;;;;23.35;9.63;;;14.50;99.90;;;;;;5063879;28;25067;-74
2021/10/26 11:12:12;;;;;;;25.35;9.15;;;14.50;99.90;;;;;;5073438;28;25072;-74
2021/10/26 11:14:49;;;;;;;25.35;9.07;;;14.50;99.90;;;;;;5074013;28;25146;-73
2021/10/26 11:17:36;;;;;;;23.55;9.20;;;14.40;99.90;;;;;;5074124;28;25101;-74
2021/10/26 11:20:05;;;;;;;24.25;9.65;;;14.50;99.90;;;;;;5075852;28;25146;-74
2021/10/26 11:22:53;;;;;;;21.30;8.70;;;14.40;99.90;;;;;;5085173;28;25076;-73
2021/10/26 11:25:28;;;;;;;23.63;8.63;;;14.50;99.90;;;;;;5078665;28;25103;-74
2021/10/26 11:27:58;;;;;;;19.55;8.13;;;14.40;99.90;;;;;;5082100;28;25070;-75
2021/10/26 11:30:36;;;;;;;17.90;7.55;;;14.30;99.90;;;;;;5075390;28;25061;-76
2021/10/26 11:33:22;;;;;;;19.55;7.88;;;14.20;99.90;;;;;;5074406;28;25085;-74
2021/10/26 11:35:51;;;;;;;17.23;8.02;;;14.20;99.90;;;;;;5079095;28;25113;-74
2021/10/26 11:38:28;;;;;;;22.73;8.60;;;14.00;99.90;;;;;;5078977;28;25128;-74
2021/10/26 11:41:00;;;;;;;17.83;7.43;;;14.00;99.90;;;;;;5076521;28;25053;-74
2021/10/26 11:43:37;;;;;;;21.05;7.55;;;14.00;99.90;;;;;;5080628;28;25076;-74
2021/10/26 11:46:04;;;;;;;17.35;7.40;;;14.00;99.90;;;;;;5076134;28;25131;-74
2021/10/26 11:48:39;;;;;;;18.80;6.97;;;14.00;99.90;;;;;;5078843;28;25059;-74
2021/10/26 11:51:26;;;;;;;16.70;6.22;;;14.00;99.90;;;;;;5058443;28;25058;-75
2021/10/26 11:53:56;;;;;;;20.90;7.60;;;13.90;99.90;;;;;;5076012;28;25076;-75
2021/10/26 11:56:23;;;;;;;20.55;6.10;;;13.90;99.90;;;;;;5076321;28;25100;-75
2021/10/26 11:59:05;;;;;;;13.88;6.20;;;13.90;99.90;;;;;;5080305;28;25066;-76
2021/10/26 12:01:39;;;;;;;13.68;6.18;;;14.00;99.90;;;;;;5062283;28;25058;-77
2021/10/26 12:04:12;;;;;;;16.00;6.18;;;14.00;99.90;;;;;;5080224;28;25067;-74
2021/10/26 12:06:38;;;;;;;14.65;7.53;;;14.00;99.90;;;;;;5077522;28;25088;-74
2021/10/26 12:09:10;;;;;;;22.42;6.65;;;13.90;99.90;;;;;;5080835;28;25058;-74
2021/10/26 12:11:40;;;;;;;16.40;6.70;;;13.90;99.90;;;;;;5076300;28;25164;-74
2021/10/26 12:14:22;;;;;;;22.40;7.10;;;13.90;99.90;;;;;;5076889;28;25056;-74
2021/10/26 12:17:05;;;;;;;17.60;6.47;;;13.90;99.90;;;;;;5080730;28;25082;-75
2021/10/26 12:19:33;;;;;;;23.30;7.00;;;13.90;99.90;;;;;;5082788;28;25074;-77
2021/10/26 12:21:59;;;;;;;21.63;7.55;;;13.90;99.90;;;;;;5076104;28;25069;-75
2021/10/26 12:24:27;;;;;;;46.33;7.70;;;13.90;99.90;;;;;;5063881;28;25080;-75
2021/10/26 12:27:05;;;;;;;15.48;6.13;;;13.90;99.90;;;;;;5060018;28;25132;-75
2021/10/26 12:29:33;;;;;;;18.10;6.57;;;13.90;99.90;;;;;;5076079;28;25082;-75
2021/10/26 12:32:00;;;;;;;26.80;7.03;;;13.90;99.90;;;;;;5077780;28;25079;-73
2021/10/26 12:34:26;;;;;;;11.50;5.85;;;14.00;99.90;;;;;;5054552;28;25128;-76
2021/10/26 12:37:31;;;;;;;11.20;5.20;;;14.00;99.90;;;;;;5081193;28;25061;-74
2021/10/26 12:40:00;;;;;;;13.98;5.18;;;14.10;99.90;;;;;;5084400;28;25066;-74
2021/10/26 12:42:45;;;;;;;9.77;4.50;;;14.30;99.90;;;;;;5089075;28;25103;-73